Time;durP1;ratioP1;P1;durP2;ratioP2;P2;SDS_P1;SDS_P2;PMS_P1;PMS_P2;Temp;Humidity;BMP_temperature;BMP_pressure;BME280_temperature;BME280_humidity;BME280_pressure;Samples;Min_cycle;Max_cycle;Signal;HPM_P1;HPM_P2
2024/03/08 00:00:51;;;;;;;23.42;11.50;;;;;;;3.96;76.72;101349.50;5206875;28;20029;-73
2024/03/08 00:03:22;;;;;;;25.73;12.93;;;;;;;4.14;76.86;101340.94;5206344;28;20021;-73
2024/03/08 00:05:52;;;;;;;26.50;12.43;;;;;;;4.12;76.84;101347.84;5190795;28;20116;-73
2024/03/08 00:08:22;;;;;;;27.13;12.25;;;;;;;4.09;76.86;101340.94;5207746;28;20025;-73
2024/03/08 00:10:53;;;;;;;24.63;12.27;;;;;;;3.86;77.48;101344.28;5207038;28;20100;-72
2024/03/08 00:13:25;;;;;;;30.80;13.13;;;;;;;3.78;78.37;101341.69;5206531;28;20561;-72
2024/03/08 00:15:57;;;;;;;25.92;12.68;;;;;;;3.72;78.56;101345.94;5211016;28;20029;-73
2024/03/08 00:18:28;;;;;;;30.35;12.50;;;;;;;3.65;79.46;101345.06;5207451;28;20041;-73
2024/03/08 00:20:59;;;;;;;27.08;12.77;;;;;;;3.66;79.16;101343.34;5207336;28;20145;-73
2024/03/08 00:23:30;;;;;;;27.67;12.40;;;;;;;3.59;79.87;101339.03;5209869;28;20021;-73
2024/03/08 00:26:00;;;;;;;28.60;12.60;;;;;;;3.46;79.62;101349.28;5207709;28;20498;-73
2024/03/08 00:28:31;;;;;;;27.35;12.60;;;;;;;3.45;80.06;101342.38;5207578;28;20075;-73
2024/03/08 00:31:01;;;;;;;27.50;13.05;;;;;;;3.46;80.34;101349.28;5206859;28;20037;-73
2024/03/08 00:33:31;;;;;;;27.55;12.90;;;;;;;3.40;80.55;101347.50;5207219;28;20387;-72
2024/03/08 00:36:02;;;;;;;25.92;12.48;;;;;;;3.29;80.94;101349.19;5207914;28;20368;-73
2024/03/08 00:38:34;;;;;;;27.30;13.05;;;;;;;3.35;80.98;101349.22;5207634;28;20112;-73
2024/03/08 00:41:04;;;;;;;27.70;12.98;;;;;;;3.28;80.86;101346.59;5207951;28;20056;-73
2024/03/08 00:43:34;;;;;;;25.98;13.52;;;;;;;3.19;80.94;101347.41;5209846;28;20454;-73
2024/03/08 00:46:05;;;;;;;28.92;13.10;;;;;;;3.38;81.15;101345.81;5205923;28;20458;-72
2024/03/08 00:48:36;;;;;;;29.80;13.55;;;;;;;3.29;81.54;101343.16;5202109;28;20256;-73
2024/03/08 00:51:06;;;;;;;29.48;12.43;;;;;;;3.22;81.58;101346.56;5208380;28;20036;-73
2024/03/08 00:53:37;;;;;;;29.90;13.50;;;;;;;3.21;82.06;101339.66;5206500;28;20021;-73
2024/03/08 00:56:10;;;;;;;29.00;13.52;;;;;;;3.25;81.58;101331.97;5208722;28;20068;-72
2024/03/08 00:58:40;;;;;;;29.20;13.73;;;;;;;3.20;81.68;101343.13;5206101;28;20908;-72
2024/03/08 01:01:15;;;;;;;25.50;12.20;;;;;;;3.26;81.98;101333.69;5210410;28;20307;-73
2024/03/08 01:03:46;;;;;;;29.45;13.00;;;;;;;3.07;81.40;101336.13;5202848;28;20041;-73
2024/03/08 01:06:16;;;;;;;31.73;13.18;;;;;;;2.96;82.87;101335.19;5195967;28;20069;-73
2024/03/08 01:08:46;;;;;;;32.67;13.75;;;;;;;2.91;82.91;101329.13;5205776;28;20028;-72
2024/03/08 01:11:17;;;;;;;27.35;13.55;;;;;;;2.85;83.45;101323.94;5208731;28;20036;-72
2024/03/08 01:13:49;;;;;;;29.20;13.75;;;;;;;2.82;82.80;101323.91;5207143;28;20033;-73
2024/03/08 01:16:22;;;;;;;29.85;13.68;;;;;;;2.92;83.18;101317.94;5208009;28;20021;-72
2024/03/08 01:18:52;;;;;;;30.58;14.20;;;;;;;2.92;82.28;101315.38;5204804;28;20071;-73
2024/03/08 01:21:23;;;;;;;27.25;13.43;;;;;;;2.85;82.40;101313.63;5209845;28;20029;-73
2024/03/08 01:23:53;;;;;;;28.20;13.45;;;;;;;2.78;83.26;101306.66;5207560;28;20082;-73
2024/03/08 01:26:23;;;;;;;27.85;12.88;;;;;;;2.84;83.08;101306.72;5208754;28;20028;-73
2024/03/08 01:28:54;;;;;;;28.02;13.38;;;;;;;2.78;82.60;101301.50;5207391;28;20032;-73
2024/03/08 01:31:24;;;;;;;28.88;13.23;;;;;;;2.83;82.91;101299.84;5210683;28;20028;-72
2024/03/08 01:33:54;;;;;;;26.45;13.20;;;;;;;2.91;83.50;101282.66;5207023;28;20056;-72
2024/03/08 01:36:25;;;;;;;26.58;13.27;;;;;;;2.74;82.87;101290.31;5209185;28;20540;-72
2024/03/08 01:38:55;;;;;;;30.38;13.82;;;;;;;2.75;83.59;101279.13;5208097;28;20026;-73
2024/03/08 01:41:29;;;;;;;27.63;13.10;;;;;;;2.72;83.70;101281.66;5205694;28;20098;-73
2024/03/08 01:43:59;;;;;;;32.25;13.90;;;;;;;2.72;83.75;101279.09;5204082;28;20021;-73
2024/03/08 01:46:31;;;;;;;30.40;13.75;;;;;;;2.60;83.81;101272.97;5206161;28;20433;-73
2024/03/08 01:49:02;;;;;;;31.63;13.98;;;;;;;2.51;84.86;101278.94;5206503;28;20025;-73
2024/03/08 01:51:32;;;;;;;39.08;15.18;;;;;;;2.27;86.48;101277.88;5192303;28;20090;-73
2024/03/08 01:54:04;;;;;;;30.90;14.45;;;;;;;2.28;86.49;101264.13;5192641;28;20029;-73
2024/03/08 01:56:34;;;;;;;30.30;14.10;;;;;;;2.28;87.13;101256.38;5202738;28;20380;-73
2024/03/08 01:59:07;;;;;;;32.55;14.75;;;;;;;2.23;87.78;101253.78;5207751;28;20029;-72
2024/03/08 02:01:38;;;;;;;30.77;14.40;;;;;;;2.26;87.06;101258.09;5207885;28;20123;-73
2024/03/08 02:04:08;;;;;;;29.73;13.73;;;;;;;1.99;88.63;101252.69;5208984;28;20022;-72
2024/03/08 02:06:39;;;;;;;35.10;14.52;;;;;;;2.10;88.44;101253.66;5207803;28;20052;-72
2024/03/08 02:09:10;;;;;;;34.28;15.25;;;;;;;1.98;89.08;101245.81;5209041;28;20116;-73
2024/03/08 02:11:41;;;;;;;34.45;14.73;;;;;;;1.90;89.79;101252.59;5207977;28;20029;-73
2024/03/08 02:14:11;;;;;;;32.40;15.75;;;;;;;1.88;89.80;101244.00;5209213;28;20028;-73
2024/03/08 02:16:42;;;;;;;36.22;15.10;;;;;;;1.83;90.34;101238.78;5208101;28;20494;-73
2024/03/08 02:19:12;;;;;;;33.70;16.58;;;;;;;1.84;90.07;101231.94;5210793;28;20028;-73
2024/03/08 02:21:43;;;;;;;37.38;16.42;;;;;;;1.80;90.42;101235.34;5208164;28;20033;-73
2024/03/08 02:24:14;;;;;;;35.50;15.63;;;;;;;1.85;91.49;101225.94;5210244;28;20191;-73
2024/03/08 02:26:44;;;;;;;33.40;15.60;;;;;;;1.80;91.33;101231.03;5207888;28;20035;-73
2024/03/08 02:29:15;;;;;;;34.38;16.15;;;;;;;1.86;90.61;101230.25;5210357;28;20020;-73
2024/03/08 02:31:45;;;;;;;32.88;15.95;;;;;;;1.75;90.83;101224.09;5207727;28;20087;-73
2024/03/08 02:34:15;;;;;;;35.17;16.55;;;;;;;1.52;92.82;101217.84;5210606;28;20483;-73
2024/03/08 02:36:46;;;;;;;34.42;16.60;;;;;;;1.38;94.09;101213.41;5207174;28;20035;-73
2024/03/08 02:39:19;;;;;;;37.45;16.23;;;;;;;1.42;94.31;101208.28;5203421;28;20055;-73
2024/03/08 02:41:49;;;;;;;34.33;16.27;;;;;;;1.40;94.05;101204.84;5207069;28;20026;-73
2024/03/08 02:44:21;;;;;;;38.13;16.17;;;;;;;1.53;93.87;101214.44;5209338;28;20464;-72
2024/03/08 02:46:54;;;;;;;34.90;15.80;;;;;;;1.48;94.33;101204.91;5203527;28;20018;-73
2024/03/08 02:49:28;;;;;;;34.72;16.13;;;;;;;1.43;94.73;101210.00;5206813;28;20021;-72
2024/03/08 02:51:58;;;;;;;35.03;16.02;;;;;;;1.38;94.04;101214.25;5205495;28;20033;-73
2024/03/08 02:54:28;;;;;;;40.80;17.25;;;;;;;1.39;93.85;101215.13;5206635;28;20051;-73
2024/03/08 02:56:59;;;;;;;35.65;16.00;;;;;;;1.63;91.75;101215.41;5207401;28;20025;-73
2024/03/08 02:59:29;;;;;;;37.10;16.90;;;;;;;1.58;92.79;101217.06;5206233;28;20028;-72
2024/03/08 03:02:00;;;;;;;37.47;16.08;;;;;;;1.53;92.78;101214.44;5201161;28;20032;-73
2024/03/08 03:04:30;;;;;;;34.33;15.70;;;;;;;1.64;91.85;101210.28;5201420;28;20063;-72
2024/03/08 03:07:01;;;;;;;36.92;16.30;;;;;;;1.56;90.92;101209.31;5206126;28;20071;-73
2024/03/08 03:09:32;;;;;;;34.42;16.35;;;;;;;1.39;92.25;101215.13;5208319;28;20429;-73
2024/03/08 03:12:03;;;;;;;33.28;16.00;;;;;;;1.66;91.58;101210.25;5206831;28;20036;-71
2024/03/08 03:14:35;;;;;;;33.55;15.77;;;;;;;1.67;91.56;101207.72;5207781;28;20025;-73
2024/03/08 03:17:06;;;;;;;36.38;16.13;;;;;;;1.76;90.96;101202.63;5206973;28;20403;-72
2024/03/08 03:19:36;;;;;;;34.17;16.15;;;;;;;1.53;90.40;101203.25;5205079;28;20033;-73
2024/03/08 03:22:09;;;;;;;35.90;15.77;;;;;;;1.48;91.59;101203.22;5207124;28;20479;-73
2024/03/08 03:24:39;;;;;;;34.10;15.68;;;;;;;1.57;90.80;101195.59;5206160;28;20025;-72
2024/03/08 03:27:13;;;;;;;34.28;16.48;;;;;;;1.74;89.24;101198.34;5203503;28;20025;-73
2024/03/08 03:29:46;;;;;;;31.63;15.20;;;;;;;1.60;89.57;101195.59;5189138;28;20033;-73
2024/03/08 03:32:18;;;;;;;35.08;16.23;;;;;;;1.53;90.24;101187.81;5207708;28;20502;-73
2024/03/08 03:34:52;;;;;;;36.40;17.05;;;;;;;1.40;90.60;101196.28;5201504;28;20038;-73
2024/03/08 03:37:23;;;;;;;31.83;14.77;;;;;;;1.50;89.98;101196.38;5197125;28;20063;-73
2024/03/08 03:39:53;;;;;;;34.08;15.40;;;;;;;1.44;90.58;101187.72;5203159;28;20049;-73
2024/03/08 03:42:24;;;;;;;35.30;15.73;;;;;;;1.52;90.29;101192.09;5208878;28;20040;-73
2024/03/08 03:44:54;;;;;;;40.53;16.15;;;;;;;1.61;90.13;101192.19;5209298;28;20124;-73
2024/03/08 03:47:24;;;;;;;34.40;15.52;;;;;;;1.54;90.12;101189.56;5214424;28;20021;-73
2024/03/08 03:49:55;;;;;;;35.53;16.65;;;;;;;1.47;89.75;101182.59;5208422;28;20021;-72
2024/03/08 03:52:26;;;;;;;29.77;15.38;;;;;;;1.48;90.20;101185.22;5212240;28;20036;-73
2024/03/08 03:54:56;;;;;;;37.30;16.25;;;;;;;1.50;90.66;101188.66;5202112;28;20025;-73
2024/03/08 03:57:27;;;;;;;33.92;15.80;;;;;;;1.33;91.18;101182.47;5206263;28;20061;-72
2024/03/08 04:00:02;;;;;;;35.05;16.80;;;;;;;1.27;91.01;101184.94;5204475;28;20086;-72
2024/03/08 04:02:32;;;;;;;35.70;17.15;;;;;;;1.30;91.60;101187.59;5211496;28;20128;-73
2024/03/08 04:05:04;;;;;;;37.50;17.63;;;;;;;1.30;91.95;101189.28;5211009;28;20728;-73
2024/03/08 04:07:35;;;;;;;36.28;16.63;;;;;;;1.17;92.83;101188.28;5207872;28;20026;-73
2024/03/08 04:10:08;;;;;;;35.88;16.02;;;;;;;1.26;93.21;101190.09;5210760;28;20029;-72
2024/03/08 04:12:39;;;;;;;35.83;17.23;;;;;;;1.42;92.81;101185.13;5211170;28;20514;-73
2024/03/08 04:15:10;;;;;;;35.08;16.73;;;;;;;1.40;91.41;101191.97;5211797;28;20095;-72
2024/03/08 04:17:41;;;;;;;38.15;16.42;;;;;;;1.36;91.66;101192.78;5210092;28;20025;-72
2024/03/08 04:20:13;;;;;;;36.35;16.02;;;;;;;1.31;91.52;101197.03;5209266;28;20029;-73
2024/03/08 04:22:44;;;;;;;33.67;15.82;;;;;;;1.27;92.06;101195.25;5209478;28;20028;-72
2024/03/08 04:25:15;;;;;;;36.15;17.23;;;;;;;1.04;92.38;101188.97;5205455;28;20521;-73
2024/03/08 04:27:45;;;;;;;36.13;16.15;;;;;;;1.05;93.23;101190.69;5199063;28;20078;-72
2024/03/08 04:30:15;;;;;;;37.28;17.08;;;;;;;0.95;93.78;101188.88;5202390;28;20055;-72
2024/03/08 04:32:47;;;;;;;37.20;17.13;;;;;;;1.07;93.24;101180.44;5206311;28;20040;-72
2024/03/08 04:35:20;;;;;;;40.30;17.63;;;;;;;1.02;93.07;101180.38;5199681;28;20039;-72
2024/03/08 04:37:50;;;;;;;37.17;17.05;;;;;;;0.82;94.24;101179.25;5198657;28;20398;-72
2024/03/08 04:40:20;;;;;;;38.63;16.95;;;;;;;0.78;94.92;101179.19;5206555;28;20025;-72
2024/03/08 04:42:51;;;;;;;39.55;17.30;;;;;;;0.72;95.27;101179.97;5203118;28;20053;-72
2024/03/08 04:45:22;;;;;;;38.92;17.50;;;;;;;0.80;95.74;101180.97;5188966;28;20021;-71
2024/03/08 04:47:52;;;;;;;39.45;18.50;;;;;;;0.82;95.11;101178.38;5193686;28;20222;-72
2024/03/08 04:50:23;;;;;;;39.20;17.98;;;;;;;0.93;94.48;101179.41;5202496;28;20179;-71
2024/03/08 04:52:53;;;;;;;39.05;18.00;;;;;;;0.84;94.41;101177.56;5196712;28;20026;-72
2024/03/08 04:55:24;;;;;;;35.60;17.48;;;;;;;0.98;93.26;101176.03;5198759;28;20045;-72
2024/03/08 04:57:55;;;;;;;36.00;16.85;;;;;;;0.91;93.89;101171.66;5205998;28;20085;-72
2024/03/08 05:00:25;;;;;;;37.03;17.35;;;;;;;0.94;93.96;101171.72;5202165;28;20671;-72
2024/03/08 05:02:55;;;;;;;36.72;16.70;;;;;;;0.99;93.36;101177.78;5201260;28;20541;-72
2024/03/08 05:05:28;;;;;;;36.72;18.65;;;;;;;1.08;93.20;101177.00;5197838;28;20095;-72
2024/03/08 05:07:58;;;;;;;34.22;17.08;;;;;;;1.16;92.61;101176.25;5195258;28;20052;-72
2024/03/08 05:10:28;;;;;;;33.10;16.48;;;;;;;1.21;91.67;101174.59;5208309;28;20021;-72
2024/03/08 05:12:59;;;;;;;35.80;16.92;;;;;;;1.22;90.87;101172.91;5197240;28;20036;-72
2024/03/08 05:15:29;;;;;;;34.75;17.05;;;;;;;1.26;90.86;101172.91;5202973;28;20033;-72
2024/03/08 05:17:59;;;;;;;34.67;16.25;;;;;;;1.31;90.60;101170.41;5203677;28;20033;-72
2024/03/08 05:20:30;;;;;;;35.38;16.02;;;;;;;1.32;90.40;101170.44;5202967;28;20029;-72
2024/03/08 05:23:01;;;;;;;33.58;16.52;;;;;;;1.35;90.26;101173.03;5196737;28;20022;-72
2024/03/08 05:25:31;;;;;;;35.13;17.17;;;;;;;1.35;89.54;101175.63;5195592;28;20036;-72
2024/03/08 05:28:01;;;;;;;33.35;16.15;;;;;;;1.39;89.46;101173.94;5197171;28;20037;-73
2024/03/08 05:30:32;;;;;;;34.88;16.17;;;;;;;1.38;89.17;101172.22;5194189;28;20322;-72
2024/03/08 05:33:03;;;;;;;42.00;17.38;;;;;;;1.31;88.78;101173.88;5199807;28;20056;-72
2024/03/08 05:35:35;;;;;;;34.40;16.08;;;;;;;1.17;88.61;101182.25;5200148;28;20625;-73
2024/03/08 05:38:06;;;;;;;36.10;17.80;;;;;;;1.20;89.66;101167.72;5195844;28;20116;-72
2024/03/08 05:40:37;;;;;;;35.97;15.70;;;;;;;1.19;89.16;101167.69;5194299;28;20116;-71
2024/03/08 05:43:07;;;;;;;36.05;16.90;;;;;;;1.13;89.50;101170.19;5207449;28;20112;-73
2024/03/08 05:45:37;;;;;;;35.35;15.82;;;;;;;1.02;91.40;101170.09;5198836;28;20032;-71
2024/03/08 05:48:08;;;;;;;35.00;16.98;;;;;;;1.16;91.73;101159.94;5196935;28;20041;-72
2024/03/08 05:50:38;;;;;;;35.85;16.63;;;;;;;1.09;92.08;101163.31;5201624;28;20083;-71
2024/03/08 05:53:09;;;;;;;36.08;17.17;;;;;;;1.11;91.70;101167.63;5192682;28;20403;-72
2024/03/08 05:55:40;;;;;;;34.80;16.17;;;;;;;1.13;91.12;101167.63;5193490;28;20026;-71
2024/03/08 05:58:11;;;;;;;34.95;16.88;;;;;;;1.04;91.78;101165.81;5194705;28;20033;-72
2024/03/08 06:00:41;;;;;;;35.63;15.80;;;;;;;1.25;90.99;101165.19;5205702;28;20043;-72
2024/03/08 06:03:12;;;;;;;36.17;15.93;;;;;;;1.22;90.33;101165.19;5199486;28;20429;-73
2024/03/08 06:05:42;;;;;;;34.22;16.77;;;;;;;1.21;90.44;101168.59;5193040;28;20606;-73
2024/03/08 06:08:14;;;;;;;37.03;16.95;;;;;;;1.26;90.01;101165.19;5201182;28;20100;-72
2024/03/08 06:10:45;;;;;;;38.00;16.98;;;;;;;1.31;89.58;101171.28;5198329;28;20029;-72
2024/03/08 06:13:16;;;;;;;36.30;16.38;;;;;;;1.22;90.65;101168.59;5198455;28;20506;-73
2024/03/08 06:15:46;;;;;;;34.00;15.50;;;;;;;1.27;90.82;101171.22;5199173;28;20030;-73
2024/03/08 06:18:17;;;;;;;36.17;16.67;;;;;;;1.38;91.00;101167.06;5197857;28;20025;-73
2024/03/08 06:20:47;;;;;;;33.67;15.90;;;;;;;1.51;89.54;101169.78;5195039;28;20410;-73
2024/03/08 06:23:18;;;;;;;36.92;16.75;;;;;;;1.59;89.01;101172.44;5201017;28;20112;-73
2024/03/08 06:25:48;;;;;;;33.67;15.70;;;;;;;1.54;88.51;101171.53;5203301;28;20029;-73
2024/03/08 06:28:19;;;;;;;35.03;16.33;;;;;;;1.78;88.06;101167.44;5201148;28;20036;-73
2024/03/08 06:30:51;;;;;;;32.75;16.42;;;;;;;1.80;87.52;101160.63;5196052;28;20112;-73
2024/03/08 06:33:21;;;;;;;32.40;15.65;;;;;;;1.90;86.94;101163.28;5204059;28;20712;-73
2024/03/08 06:35:54;;;;;;;35.60;15.45;;;;;;;2.00;86.33;101167.66;5198622;28;20120;-73
2024/03/08 06:38:25;;;;;;;33.55;15.73;;;;;;;2.04;86.07;101158.25;5197601;28;20545;-73
2024/03/08 06:40:55;;;;;;;32.08;15.75;;;;;;;2.18;86.47;101156.63;5198481;28;20053;-73
2024/03/08 06:43:32;;;;;;;35.30;15.93;;;;;;;2.06;86.57;101156.53;5196816;28;20083;-73
2024/03/08 06:46:03;;;;;;;34.70;15.73;;;;;;;2.04;86.63;101148.81;5202139;28;20041;-73
2024/03/08 06:48:35;;;;;;;34.60;15.70;;;;;;;2.25;85.97;101148.06;5197077;28;20032;-73
2024/03/08 06:51:05;;;;;;;33.20;15.98;;;;;;;2.32;85.17;101152.44;5196117;28;20032;-73
2024/03/08 06:53:36;;;;;;;34.17;16.35;;;;;;;2.46;84.87;101146.50;5201092;28;20029;-73
2024/03/08 06:56:07;;;;;;;32.25;15.65;;;;;;;2.60;84.12;101149.16;5199490;28;20529;-73
2024/03/08 06:58:38;;;;;;;33.30;15.82;;;;;;;2.74;84.30;101153.56;5197075;28;20017;-73
2024/03/08 07:01:13;;;;;;;32.90;15.73;;;;;;;2.79;83.95;101153.56;5199841;28;20017;-73
2024/03/08 07:03:44;;;;;;;31.92;16.05;;;;;;;2.85;84.75;101157.03;5182014;28;20185;-71
2024/03/08 07:06:14;;;;;;;32.05;15.90;;;;;;;3.05;83.77;101154.53;5188530;28;20503;-73
2024/03/08 07:08:45;;;;;;;36.53;16.58;;;;;;;3.14;84.21;101152.84;5182491;28;20025;-72
2024/03/08 07:11:18;;;;;;;33.20;15.82;;;;;;;3.29;83.81;101149.44;5194970;28;20053;-72
2024/03/08 07:13:48;;;;;;;33.30;15.63;;;;;;;3.23;83.95;101146.84;5195138;28;20033;-73
2024/03/08 07:16:18;;;;;;;32.83;16.30;;;;;;;3.34;84.39;101155.50;5195196;28;20022;-73
2024/03/08 07:18:52;;;;;;;33.00;16.13;;;;;;;3.30;84.26;101151.16;5205246;28;20729;-73
2024/03/08 07:21:22;;;;;;;31.33;16.15;;;;;;;3.57;82.60;101149.50;5207671;28;20028;-73
2024/03/08 07:26:32;;;;;;;35.40;16.00;;;;;;;3.61;83.92;101141.78;5198537;28;20068;-73
2024/03/08 07:29:02;;;;;;;32.67;15.93;;;;;;;3.83;82.82;101147.84;5203940;28;20061;-73
2024/03/08 07:34:12;;;;;;;31.85;16.60;;;;;;;5.30;76.64;101143.16;5208479;28;20590;-74
2024/03/08 07:36:42;;;;;;;32.13;15.95;;;;;;;6.79;72.12;101127.22;5206613;28;20128;-74
2024/03/08 07:39:13;;;;;;;33.67;14.43;;;;;;;8.28;68.23;101116.34;5203433;28;20029;-74
2024/03/08 07:41:43;;;;;;;28.02;14.68;;;;;;;8.35;66.11;101121.44;5201240;28;20665;-73
2024/03/08 07:44:14;;;;;;;26.27;14.27;;;;;;;9.45;62.89;101109.63;5206387;28;20032;-74
2024/03/08 07:46:44;;;;;;;22.85;13.63;;;;;;;10.17;62.36;101107.91;5196814;28;20495;-74
2024/03/08 07:49:15;;;;;;;23.83;13.88;;;;;;;10.82;57.91;101099.16;5201632;28;20384;-74
2024/03/08 07:51:45;;;;;;;26.08;13.68;;;;;;;9.70;60.70;101101.19;5212582;28;20032;-74
2024/03/08 07:54:15;;;;;;;24.00;13.63;;;;;;;11.39;58.40;101093.91;5204464;28;20106;-74
2024/03/08 07:56:46;;;;;;;25.88;13.10;;;;;;;10.50;61.58;101099.19;5202914;28;20112;-74
2024/03/08 07:59:17;;;;;;;20.15;12.02;;;;;;;12.06;57.53;101092.66;5203308;28;20126;-74
2024/03/08 08:01:47;;;;;;;23.45;13.40;;;;;;;11.86;55.33;101093.31;5203940;28;20052;-74
2024/03/08 08:04:19;;;;;;;22.33;12.77;;;;;;;12.28;57.95;101081.41;5199410;28;20498;-74
2024/03/08 08:06:50;;;;;;;23.38;13.00;;;;;;;13.15;52.65;101076.47;5204000;28;20029;-73
2024/03/08 08:09:28;;;;;;;26.77;13.48;;;;;;;12.85;54.76;101078.47;5208670;28;20182;-74
2024/03/08 08:11:58;;;;;;;22.15;12.82;;;;;;;13.95;53.03;101073.22;5204338;28;20033;-74
2024/03/08 08:14:29;;;;;;;22.33;13.25;;;;;;;14.75;50.75;101058.31;5204985;28;20034;-74
2024/03/08 08:17:03;;;;;;;21.42;13.27;;;;;;;14.60;51.24;101064.25;5207374;28;20033;-74
2024/03/08 08:19:35;;;;;;;20.10;12.80;;;;;;;13.19;54.67;101069.31;5200741;28;20458;-74
2024/03/08 08:22:05;;;;;;;22.15;13.52;;;;;;;12.66;54.61;101072.19;5202574;28;20051;-74
2024/03/08 08:24:36;;;;;;;23.15;13.85;;;;;;;13.01;54.59;101068.25;5201455;28;20017;-74
2024/03/08 08:27:08;;;;;;;25.38;14.20;;;;;;;13.29;55.51;101063.66;5202315;28;20078;-74
2024/03/08 08:29:38;;;;;;;25.65;14.77;;;;;;;11.46;60.21;101069.25;5201560;28;20052;-73
2024/03/08 08:32:10;;;;;;;23.27;14.20;;;;;;;12.10;57.36;101063.69;5199257;28;20033;-74
2024/03/08 08:34:42;;;;;;;22.98;14.38;;;;;;;13.83;53.73;101057.97;5199849;28;20030;-74
2024/03/08 08:37:12;;;;;;;23.30;13.80;;;;;;;12.42;56.71;101058.19;5200299;28;20056;-73
2024/03/08 08:39:43;;;;;;;23.30;14.32;;;;;;;12.89;55.91;101052.06;5201276;28;20048;-74
2024/03/08 08:42:13;;;;;;;25.77;14.30;;;;;;;12.96;56.17;101053.59;5207786;28;20037;-73
2024/03/08 08:44:43;;;;;;;23.08;14.10;;;;;;;12.74;56.15;101044.78;5197242;28;20033;-73
2024/03/08 08:47:14;;;;;;;22.83;13.07;;;;;;;12.81;55.20;101041.00;5198424;28;20060;-74
2024/03/08 08:49:46;;;;;;;22.65;14.27;;;;;;;13.17;54.90;101037.00;5196552;28;20486;-74
2024/03/08 08:52:16;;;;;;;26.10;14.30;;;;;;;13.61;54.42;101044.00;5204592;28;20033;-73
2024/03/08 08:54:48;;;;;;;21.80;13.68;;;;;;;14.46;52.18;101023.72;5201492;28;20018;-74
2024/03/08 08:57:19;;;;;;;24.52;12.90;;;;;;;14.51;52.74;101021.72;5201330;28;20095;-74
2024/03/08 08:59:50;;;;;;;21.85;13.90;;;;;;;13.95;52.86;101033.81;5190707;28;20044;-74
2024/03/08 09:02:20;;;;;;;22.15;13.05;;;;;;;14.12;51.89;101031.31;5201172;28;20021;-74
2024/03/08 09:04:51;;;;;;;23.13;13.98;;;;;;;12.79;55.68;101036.75;5201320;28;20438;-74
2024/03/08 09:07:21;;;;;;;25.13;13.77;;;;;;;12.49;55.12;101027.38;5195974;28;20025;-74
2024/03/08 09:09:56;;;;;;;23.15;13.95;;;;;;;12.31;56.06;101028.03;5197605;28;20025;-74
2024/03/08 09:12:27;;;;;;;24.60;13.90;;;;;;;13.56;54.63;101022.31;5198420;28;20024;-73
2024/03/08 09:14:58;;;;;;;28.10;14.55;;;;;;;11.90;56.91;101023.34;5202502;28;20026;-73
2024/03/08 09:17:30;;;;;;;24.65;14.32;;;;;;;11.20;58.76;101029.97;5201407;28;20033;-74
2024/03/08 09:20:00;;;;;;;26.85;14.88;;;;;;;11.63;61.02;101025.09;5197109;28;20040;-74
2024/03/08 09:22:30;;;;;;;25.83;15.05;;;;;;;10.72;62.28;101029.72;5200986;28;20021;-73
2024/03/08 09:25:01;;;;;;;28.27;16.48;;;;;;;10.57;62.45;101017.09;5198091;28;20075;-73
2024/03/08 09:27:31;;;;;;;27.00;15.45;;;;;;;9.98;63.49;101018.69;5204546;28;20031;-73
2024/03/08 09:30:02;;;;;;;33.42;17.17;;;;;;;9.68;64.86;101014.22;5201394;28;20029;-73
2024/03/08 09:32:33;;;;;;;29.75;15.70;;;;;;;9.42;64.85;101005.31;5198041;28;20499;-73
2024/03/08 09:35:07;;;;;;;29.20;16.80;;;;;;;9.41;65.13;101004.47;5184883;28;20049;-73
2024/03/08 09:37:38;;;;;;;32.13;17.63;;;;;;;9.61;66.45;100998.75;5203756;28;20023;-73
2024/03/08 09:40:15;;;;;;;30.67;16.00;;;;;;;9.82;64.74;100993.88;5197898;28;20037;-73
2024/03/08 09:42:47;;;;;;;31.10;17.10;;;;;;;8.88;64.89;100984.91;5201145;28;20017;-73
2024/03/08 09:45:22;;;;;;;30.58;16.08;;;;;;;8.04;67.33;100989.22;5207123;28;20518;-73
2024/03/08 09:47:53;;;;;;;29.15;16.15;;;;;;;8.00;67.56;100984.94;5222116;22;20507;-72
2024/03/08 09:50:23;;;;;;;30.98;16.15;;;;;;;8.01;67.91;100978.88;5195797;28;20060;-72
2024/03/08 09:52:56;;;;;;;32.42;16.95;;;;;;;7.94;68.83;100975.53;5201143;28;20021;-72
2024/03/08 09:55:31;;;;;;;32.83;16.00;;;;;;;7.64;68.63;100970.88;5206769;28;20036;-72
2024/03/08 10:00:57;;;;;;;34.95;18.00;;;;;;;7.60;71.41;100963.13;5203234;28;20387;-75
2024/03/08 10:03:28;;;;;;;33.03;16.58;;;;;;;7.67;70.93;100963.00;5202001;28;20394;-74
2024/03/08 10:06:03;;;;;;;31.38;16.70;;;;;;;8.37;69.62;100955.59;5202725;28;20502;-72
2024/03/08 10:08:34;;;;;;;31.77;16.40;;;;;;;8.33;68.32;100955.69;5184032;28;20041;-74
2024/03/08 10:11:04;;;;;;;32.72;17.17;;;;;;;8.21;68.82;100946.38;5204763;28;20025;-72
2024/03/08 10:13:34;;;;;;;43.58;17.80;;;;;;;8.41;69.28;100946.81;5202244;28;20020;-72
2024/03/08 10:16:05;;;;;;;35.20;17.85;;;;;;;8.09;69.81;100944.00;5202852;28;20034;-72
2024/03/08 10:18:35;;;;;;;38.72;17.88;;;;;;;8.10;70.42;100945.72;5202454;28;20531;-72
2024/03/08 10:21:08;;;;;;;35.92;17.55;;;;;;;8.41;69.52;100946.81;5198190;28;20057;-72
2024/03/08 10:23:39;;;;;;;29.42;14.65;;;;;;;7.95;68.33;100950.34;5187751;28;20209;-75
2024/03/08 10:26:14;;;;;;;32.80;16.58;;;;;;;8.05;69.02;100944.94;5203207;28;20067;-73
2024/03/08 10:28:49;;;;;;;30.08;15.45;;;;;;;8.21;68.69;100946.38;5201475;28;20390;-74
2024/03/08 10:31:20;;;;;;;36.03;16.70;;;;;;;7.95;69.48;100946.00;5187083;28;20047;-74
2024/03/08 10:33:50;;;;;;;33.85;16.05;;;;;;;8.23;69.16;100933.34;5201240;28;20025;-74
2024/03/08 10:36:21;;;;;;;31.58;16.00;;;;;;;8.03;69.47;100940.66;5204020;28;20448;-75
2024/03/08 10:38:53;;;;;;;31.70;16.50;;;;;;;8.50;70.83;100933.63;5194964;28;20372;-75
2024/03/08 10:41:25;;;;;;;30.92;17.15;;;;;;;8.65;70.58;100930.69;5203466;28;20028;-75
2024/03/08 10:44:08;;;;;;;32.53;16.05;;;;;;;8.53;68.58;100925.72;5202920;28;20490;-72
2024/03/08 10:46:57;;;;;;;32.78;17.05;;;;;;;8.43;69.20;100926.84;5201474;28;20029;-72
2024/03/08 10:49:34;;;;;;;32.80;15.90;;;;;;;8.28;69.83;100929.75;5198065;28;20426;-72
2024/03/08 10:52:08;;;;;;;37.67;16.00;;;;;;;8.17;69.66;100933.41;5204843;28;20025;-75
2024/03/08 10:54:40;;;;;;;33.10;17.25;;;;;;;8.09;70.42;100933.59;5191117;28;20035;-75
2024/03/08 10:57:13;;;;;;;31.35;16.92;;;;;;;8.19;70.54;100924.72;5189364;28;20045;-75
2024/03/08 10:59:44;;;;;;;32.38;16.50;;;;;;;8.18;70.30;100916.97;5209744;28;20025;-72
2024/03/08 11:02:16;;;;;;;33.50;16.88;;;;;;;8.37;68.84;100913.94;5208424;28;20151;-75
2024/03/08 11:04:50;;;;;;;37.38;17.17;;;;;;;8.18;69.69;100907.41;5207621;28;20021;-75
2024/03/08 11:07:21;;;;;;;30.50;16.38;;;;;;;8.07;70.89;100904.09;5212515;28;20021;-75
2024/03/08 11:09:51;;;;;;;35.55;17.38;;;;;;;8.10;70.19;100903.19;5203637;28;20033;-72
2024/03/08 11:12:29;;;;;;;29.55;15.52;;;;;;;8.22;70.18;100898.63;5198473;28;20585;-72
2024/03/08 11:15:09;;;;;;;31.38;15.82;;;;;;;8.15;70.94;100891.81;5204741;28;20021;-75
2024/03/08 11:17:44;;;;;;;32.70;16.38;;;;;;;8.18;70.35;100891.78;5207245;28;20522;-75
2024/03/08 11:20:17;;;;;;;30.08;16.30;;;;;;;8.29;71.05;100892.41;5205147;28;20090;-75
2024/03/08 11:22:53;;;;;;;31.17;16.40;;;;;;;8.60;69.63;100877.84;5208010;28;20032;-75
2024/03/08 11:25:41;;;;;;;31.65;16.42;;;;;;;8.70;71.43;100871.50;5204800;28;20020;-74
2024/03/08 11:28:20;;;;;;;32.15;16.63;;;;;;;8.38;69.03;100863.56;5211230;28;20033;-75
2024/03/08 11:30:59;;;;;;;28.05;14.65;;;;;;;8.40;70.18;100864.38;5207611;28;20033;-74
2024/03/08 11:33:35;;;;;;;31.92;15.95;;;;;;;8.54;70.61;100857.13;5205610;28;20608;-74
2024/03/08 11:36:16;;;;;;;;;;;;;;;8.46;69.27;100858.19;5208987;28;20061;-74
2024/03/08 11:38:49;;;;;;;30.30;14.70;;;;;;;8.32;70.37;100852.41;5191051;28;20302;-74
2024/03/08 11:41:21;;;;;;;35.08;15.50;;;;;;;8.39;69.68;100852.25;5208277;28;20094;-74
2024/03/08 11:44:18;;;;;;;28.73;14.95;;;;;;;8.40;70.10;100846.16;5207502;28;20053;-74